Time;durP1;ratioP1;P1;durP2;ratioP2;P2;SDS_P1;SDS_P2;PMS_P1;PMS_P2;Temp;Humidity;BMP_temperature;BMP_pressure;BME280_temperature;BME280_humidity;BME280_pressure;Samples;Min_cycle;Max_cycle;Signal;HPM_P1;HPM_P2
2022/03/30 00:00:52;;;;;;;6.17;4.10;;;6.00;1.00;;;;;;6285096;28;20370;-54
2022/03/30 00:03:56;;;;;;;8.23;4.17;;;6.00;1.00;;;;;;6285270;28;20248;-53
2022/03/30 00:06:59;;;;;;;4.73;3.90;;;6.00;1.00;;;;;;6276433;28;20258;-54
2022/03/30 00:10:04;;;;;;;7.00;4.07;;;5.80;1.00;;;;;;6280412;28;20271;-55
2022/03/30 00:13:08;;;;;;;4.00;3.67;;;5.90;1.00;;;;;;6248997;28;20230;-55
2022/03/30 00:16:12;;;;;;;4.00;3.60;;;5.90;1.00;;;;;;6257163;28;20256;-55
2022/03/30 00:19:17;;;;;;;4.33;3.87;;;5.30;1.00;;;;;;6260701;28;20780;-56
2022/03/30 00:22:20;;;;;;;6.87;3.97;;;6.00;1.00;;;;;;6255067;28;20321;-54
2022/03/30 00:25:23;;;;;;;4.87;4.10;;;6.10;1.00;;;;;;6255360;28;20250;-54
2022/03/30 00:28:27;;;;;;;6.07;4.23;;;5.90;1.00;;;;;;6257368;28;20234;-54
2022/03/30 00:31:30;;;;;;;3.93;3.60;;;5.70;1.00;;;;;;6259458;28;20230;-54
2022/03/30 00:34:34;;;;;;;7.03;4.17;;;5.80;1.00;;;;;;6272008;28;20304;-55
2022/03/30 00:37:37;;;;;;;3.97;3.60;;;5.70;1.00;;;;;;6264303;28;20646;-53
2022/03/30 00:40:40;;;;;;;4.67;4.20;;;5.70;1.00;;;;;;6239045;28;20420;-53
2022/03/30 00:43:43;;;;;;;5.73;4.10;;;6.00;1.00;;;;;;6251342;28;20234;-54
2022/03/30 00:46:46;;;;;;;5.93;4.13;;;6.00;1.00;;;;;;6244454;28;20916;-54
2022/03/30 00:49:50;;;;;;;4.73;4.30;;;5.70;1.00;;;;;;6239470;28;20234;-54
2022/03/30 00:52:56;;;;;;;5.93;4.03;;;5.90;1.00;;;;;;6263171;28;20530;-54
2022/03/30 00:55:59;;;;;;;4.67;3.80;;;5.90;1.00;;;;;;6249496;28;20239;-54
2022/03/30 00:59:05;;;;;;;5.63;4.07;;;5.90;1.00;;;;;;6257169;28;20368;-54
2022/03/30 01:02:10;;;;;;;7.10;3.70;;;5.90;1.00;;;;;;6259035;28;20752;-54
2022/03/30 01:05:15;;;;;;;6.43;3.70;;;5.50;1.00;;;;;;6243084;28;20281;-55
2022/03/30 01:08:18;;;;;;;4.23;3.90;;;5.60;1.00;;;;;;6257890;28;20811;-54
2022/03/30 01:11:22;;;;;;;4.60;3.90;;;5.50;1.00;;;;;;6257946;28;20487;-53
2022/03/30 01:14:26;;;;;;;5.17;4.10;;;5.50;1.00;;;;;;6247625;28;20242;-58
2022/03/30 01:17:30;;;;;;;6.50;4.33;;;5.70;1.00;;;;;;6252905;28;20265;-54
2022/03/30 01:20:37;;;;;;;6.40;3.97;;;5.30;1.00;;;;;;6255239;28;20770;-54
2022/03/30 01:23:41;;;;;;;5.87;3.90;;;5.40;1.00;;;;;;6241133;28;20784;-54
2022/03/30 01:26:44;;;;;;;5.63;4.10;;;5.40;1.00;;;;;;6256311;28;20412;-54
2022/03/30 01:33:13;;;;;;;8.83;4.53;;;5.40;1.00;;;;;;6255785;28;20258;-55
2022/03/30 01:36:19;;;;;;;20.67;12.37;;;5.40;1.00;;;;;;6249160;28;20238;-54
2022/03/30 01:39:23;;;;;;;28.53;15.93;;;5.50;1.00;;;;;;6256795;28;20337;-52
2022/03/30 01:42:27;;;;;;;28.23;14.87;;;5.30;1.00;;;;;;6260864;28;20496;-54
2022/03/30 01:45:30;;;;;;;17.63;11.13;;;5.30;1.00;;;;;;6254065;28;20234;-54
2022/03/30 01:48:33;;;;;;;13.93;9.17;;;5.60;1.00;;;;;;6254477;28;20733;-54
2022/03/30 01:51:36;;;;;;;11.60;7.90;;;5.50;1.00;;;;;;6240026;28;20333;-52
2022/03/30 01:54:41;;;;;;;11.40;7.10;;;5.50;1.00;;;;;;6238834;28;20834;-54
2022/03/30 01:57:53;;;;;;;8.60;6.00;;;5.30;1.00;;;;;;6259090;28;20235;-54
2022/03/30 02:00:57;;;;;;;8.53;5.40;;;5.40;1.00;;;;;;6265786;28;20272;-54
2022/03/30 02:04:00;;;;;;;6.50;5.17;;;5.40;1.00;;;;;;6255819;28;20715;-54
2022/03/30 02:07:05;;;;;;;8.60;4.43;;;5.40;1.00;;;;;;6243151;28;20241;-53
2022/03/30 02:10:10;;;;;;;7.43;3.93;;;5.30;1.00;;;;;;6238130;28;20231;-54
2022/03/30 02:13:14;;;;;;;4.93;4.40;;;5.60;1.00;;;;;;6238963;28;20338;-54
2022/03/30 02:16:16;;;;;;;6.37;3.90;;;5.40;1.00;;;;;;6252601;28;20325;-54
2022/03/30 02:19:19;;;;;;;8.67;4.47;;;5.30;1.00;;;;;;6262500;28;20238;-53
2022/03/30 02:22:23;;;;;;;7.60;4.93;;;5.40;1.00;;;;;;6248555;28;20264;-53
2022/03/30 02:25:27;;;;;;;6.67;4.17;;;5.50;1.00;;;;;;6264710;28;20361;-54
2022/03/30 02:28:29;;;;;;;11.37;4.53;;;5.50;1.00;;;;;;6253860;28;20283;-54
2022/03/30 02:31:32;;;;;;;6.50;4.27;;;5.40;1.00;;;;;;6262534;28;20263;-53
2022/03/30 02:34:36;;;;;;;6.87;3.90;;;5.40;1.00;;;;;;6265791;28;20462;-54
2022/03/30 02:37:39;;;;;;;4.87;4.40;;;5.30;1.00;;;;;;6257155;28;20241;-54
2022/03/30 02:40:44;;;;;;;10.83;4.40;;;5.40;1.00;;;;;;6260180;28;20242;-55
2022/03/30 02:43:46;;;;;;;10.80;5.00;;;5.60;1.00;;;;;;6260960;28;20835;-55
2022/03/30 02:46:49;;;;;;;8.93;4.37;;;5.60;1.00;;;;;;6252349;28;20238;-54
2022/03/30 02:49:52;;;;;;;6.03;4.53;;;5.30;1.00;;;;;;6256405;28;20237;-54
2022/03/30 02:52:55;;;;;;;8.90;5.07;;;5.30;1.00;;;;;;6238130;28;20269;-54
2022/03/30 02:55:59;;;;;;;5.60;5.13;;;5.40;1.00;;;;;;6237549;28;20238;-54
2022/03/30 02:59:02;;;;;;;8.40;5.10;;;5.10;1.00;;;;;;6235311;28;20270;-54
2022/03/30 03:02:05;;;;;;;8.97;4.83;;;5.50;1.00;;;;;;6236157;28;20239;-56
2022/03/30 03:05:10;;;;;;;11.07;5.07;;;5.30;1.00;;;;;;6248400;28;20282;-54
2022/03/30 03:08:13;;;;;;;6.90;4.53;;;5.30;1.00;;;;;;6258449;28;20307;-54
2022/03/30 03:11:18;;;;;;;9.80;5.07;;;5.30;1.00;;;;;;6269115;28;20514;-54
2022/03/30 03:14:21;;;;;;;5.57;4.40;;;5.40;1.00;;;;;;6269135;28;20229;-55
2022/03/30 03:17:24;;;;;;;11.10;4.47;;;5.20;1.00;;;;;;6261395;28;20460;-53
2022/03/30 03:20:27;;;;;;;19.23;7.00;;;5.20;1.00;;;;;;6268999;28;20733;-54
2022/03/30 03:23:29;;;;;;;10.53;4.73;;;5.20;1.00;;;;;;6281828;28;20371;-54
2022/03/30 03:26:34;;;;;;;9.10;4.47;;;5.50;1.00;;;;;;6286351;28;20240;-54
2022/03/30 03:29:36;;;;;;;18.37;5.57;;;5.40;1.00;;;;;;6269244;28;20233;-53
2022/03/30 03:32:39;;;;;;;8.10;4.83;;;5.20;1.00;;;;;;6274032;28;20619;-54
2022/03/30 03:35:42;;;;;;;11.40;4.93;;;5.00;1.00;;;;;;6276565;28;20555;-53
2022/03/30 03:38:44;;;;;;;7.33;4.37;;;4.90;1.00;;;;;;6261310;28;20261;-54
2022/03/30 03:41:48;;;;;;;8.43;4.77;;;5.00;1.00;;;;;;6262089;28;20601;-54
2022/03/30 03:44:51;;;;;;;8.80;4.43;;;5.00;1.00;;;;;;6284340;28;20487;-54
2022/03/30 03:47:54;;;;;;;10.60;4.77;;;5.20;1.00;;;;;;6284583;28;20229;-54
2022/03/30 03:50:57;;;;;;;7.53;4.30;;;5.00;1.00;;;;;;6269381;28;20263;-53
2022/03/30 03:53:59;;;;;;;10.70;4.53;;;4.90;1.00;;;;;;6271255;28;20239;-53
2022/03/30 03:57:04;;;;;;;9.00;4.93;;;4.90;1.00;;;;;;6265622;28;20269;-61
2022/03/30 04:00:09;;;;;;;6.93;4.67;;;4.90;1.00;;;;;;6260069;28;20387;-54
2022/03/30 04:03:11;;;;;;;5.27;4.50;;;5.00;1.00;;;;;;6268322;28;20252;-54
2022/03/30 04:06:15;;;;;;;4.63;4.17;;;4.80;1.00;;;;;;6274890;28;20236;-54
2022/03/30 04:09:18;;;;;;;8.57;4.73;;;4.80;1.00;;;;;;6283934;28;20773;-53
2022/03/30 04:12:22;;;;;;;6.87;5.27;;;4.80;1.00;;;;;;6284080;28;20647;-54
2022/03/30 04:15:25;;;;;;;9.83;5.20;;;4.70;1.00;;;;;;6280209;28;20275;-54
2022/03/30 04:18:28;;;;;;;7.43;4.60;;;4.80;1.00;;;;;;6263458;28;20499;-54
2022/03/30 04:21:30;;;;;;;9.20;4.93;;;5.00;1.00;;;;;;6259299;28;20320;-54
2022/03/30 04:24:33;;;;;;;11.03;5.43;;;4.80;1.00;;;;;;6273454;28;20237;-54
2022/03/30 04:27:44;;;;;;;11.20;6.10;;;4.80;1.00;;;;;;6278018;28;21762;-54
2022/03/30 04:30:46;;;;;;;10.87;5.03;;;4.60;1.00;;;;;;6283373;28;20240;-54
2022/03/30 04:33:49;;;;;;;11.33;4.87;;;4.60;1.00;;;;;;6283733;28;20314;-54
2022/03/30 04:36:52;;;;;;;9.53;4.73;;;4.90;1.00;;;;;;6275666;28;20390;-54
2022/03/30 04:39:55;;;;;;;7.47;4.90;;;4.80;1.00;;;;;;6281503;28;20229;-54
2022/03/30 04:42:59;;;;;;;11.97;5.33;;;4.80;1.00;;;;;;6263461;28;20621;-54
2022/03/30 04:46:05;;;;;;;5.93;5.00;;;4.80;1.00;;;;;;6263229;28;20599;-54
2022/03/30 04:49:10;;;;;;;7.53;4.93;;;4.70;1.00;;;;;;6233431;28;20226;-54
2022/03/30 04:52:13;;;;;;;11.63;4.97;;;4.80;1.00;;;;;;6244290;28;20277;-54
2022/03/30 04:55:16;;;;;;;10.80;4.80;;;4.80;1.00;;;;;;6282625;28;20303;-54
2022/03/30 04:58:20;;;;;;;12.17;5.20;;;5.10;1.00;;;;;;6260283;28;20299;-54
2022/03/30 05:01:22;;;;;;;9.43;4.90;;;5.10;1.00;;;;;;6258403;28;20295;-53
2022/03/30 05:04:25;;;;;;;6.67;5.17;;;5.00;1.00;;;;;;6269272;28;20244;-54
2022/03/30 05:07:28;;;;;;;8.27;4.77;;;5.00;1.00;;;;;;6282974;28;20282;-54
2022/03/30 05:10:31;;;;;;;10.20;4.83;;;5.10;1.00;;;;;;6268195;28;20301;-55
2022/03/30 05:13:35;;;;;;;9.07;4.80;;;5.30;1.00;;;;;;6258507;28;20316;-54
2022/03/30 05:16:38;;;;;;;9.73;5.53;;;5.00;1.00;;;;;;6272420;28;20241;-57
2022/03/30 05:19:40;;;;;;;5.03;4.60;;;5.10;1.00;;;;;;6270452;28;20369;-53
2022/03/30 05:22:44;;;;;;;9.20;4.63;;;5.20;1.00;;;;;;6262967;28;20713;-55
2022/03/30 05:25:47;;;;;;;8.33;5.07;;;5.30;1.00;;;;;;6278857;28;24831;-55
2022/03/30 05:28:51;;;;;;;12.17;4.87;;;5.20;1.00;;;;;;6282729;28;20715;-54
2022/03/30 05:31:54;;;;;;;7.43;5.03;;;5.40;1.00;;;;;;6287763;28;20763;-54
2022/03/30 05:35:16;;;;;;;14.73;4.87;;;5.20;1.00;;;;;;6272220;28;20329;-54
2022/03/30 05:38:18;;;;;;;9.30;4.97;;;5.40;1.00;;;;;;6287513;28;20671;-54
2022/03/30 05:41:22;;;;;;;9.27;5.60;;;5.40;1.00;;;;;;6284177;28;20374;-54
2022/03/30 05:44:26;;;;;;;7.17;5.10;;;5.50;1.00;;;;;;6285291;28;20734;-54
2022/03/30 05:47:29;;;;;;;7.37;5.03;;;5.50;1.00;;;;;;6276054;28;20316;-53
2022/03/30 05:50:32;;;;;;;8.47;4.80;;;5.70;1.00;;;;;;6263623;28;20317;-54
2022/03/30 05:53:34;;;;;;;7.70;4.90;;;5.70;1.00;;;;;;6263236;28;20241;-55
2022/03/30 05:59:59;;;;;;;11.27;5.30;;;5.70;1.00;;;;;;6261449;28;20259;-54
2022/03/30 06:03:02;;;;;;;9.67;5.07;;;5.90;1.00;;;;;;6269088;28;20641;-56
2022/03/30 06:06:05;;;;;;;10.57;5.50;;;5.90;1.00;;;;;;6275070;28;20244;-53
2022/03/30 06:09:08;;;;;;;12.53;5.03;;;5.90;1.00;;;;;;6262315;28;20238;-54
2022/03/30 06:12:11;;;;;;;11.00;5.13;;;6.10;1.00;;;;;;6272867;28;20298;-53
2022/03/30 06:15:15;;;;;;;8.57;5.37;;;6.10;1.00;;;;;;6280748;28;20485;-53
2022/03/30 06:18:18;;;;;;;11.47;5.47;;;6.20;1.00;;;;;;6280571;28;20233;-55
2022/03/30 06:21:21;;;;;;;7.37;4.97;;;6.10;1.00;;;;;;6287176;28;20235;-55
2022/03/30 06:24:24;;;;;;;7.30;5.30;;;6.10;1.00;;;;;;6286749;28;20261;-54
2022/03/30 06:27:27;;;;;;;7.83;5.03;;;6.20;1.00;;;;;;6287964;28;20251;-53
2022/03/30 06:30:31;;;;;;;12.03;4.97;;;6.30;1.00;;;;;;6279299;28;20321;-54
2022/03/30 06:33:34;;;;;;;10.63;4.87;;;6.40;1.00;;;;;;6270614;28;20324;-53
2022/03/30 06:36:38;;;;;;;9.27;4.83;;;6.50;1.00;;;;;;6272189;28;20238;-53
2022/03/30 06:39:41;;;;;;;9.73;4.67;;;6.60;1.00;;;;;;6263072;28;20255;-54
2022/03/30 06:42:44;;;;;;;9.80;4.73;;;6.70;1.00;;;;;;6286282;28;20405;-55
2022/03/30 06:45:50;;;;;;;13.20;5.53;;;7.10;1.00;;;;;;6281371;28;20290;-54
2022/03/30 06:48:53;;;;;;;9.13;4.30;;;7.00;1.00;;;;;;6256303;28;20226;-53
2022/03/30 06:51:56;;;;;;;7.70;4.53;;;7.10;1.00;;;;;;6242687;28;20328;-54
2022/03/30 06:55:00;;;;;;;10.80;4.47;;;7.00;1.00;;;;;;6240967;28;20389;-52
2022/03/30 06:58:02;;;;;;;15.23;5.00;;;7.40;1.00;;;;;;6238532;28;20273;-53
2022/03/30 07:01:08;;;;;;;11.70;4.50;;;7.30;1.00;;;;;;6237840;28;20607;-53
2022/03/30 07:04:11;;;;;;;9.43;4.60;;;7.40;1.00;;;;;;6244974;28;20333;-55
2022/03/30 07:10:39;;;;;;;8.53;4.40;;;7.50;1.00;;;;;;6241563;28;20234;-54
2022/03/30 07:13:41;;;;;;;10.83;5.07;;;7.80;1.00;;;;;;6240635;28;20253;-51
2022/03/30 07:16:45;;;;;;;7.73;4.30;;;7.80;1.00;;;;;;6247018;28;20715;-55
2022/03/30 07:19:48;;;;;;;11.20;4.53;;;7.80;1.00;;;;;;6236552;28;20610;-54
2022/03/30 07:22:52;;;;;;;9.40;5.27;;;7.80;1.00;;;;;;6243782;28;20238;-54
2022/03/30 07:25:56;;;;;;;8.33;4.90;;;7.90;1.00;;;;;;6263794;28;20615;-55
2022/03/30 07:28:59;;;;;;;8.87;5.00;;;7.90;1.00;;;;;;6260987;28;20242;-53
2022/03/30 07:32:04;;;;;;;15.70;5.30;;;8.00;1.00;;;;;;6250748;28;20235;-54
2022/03/30 07:35:09;;;;;;;9.73;4.73;;;8.00;1.00;;;;;;6252812;28;20238;-54
2022/03/30 07:38:11;;;;;;;7.67;4.53;;;8.10;1.00;;;;;;6236013;28;20254;-54
2022/03/30 07:41:14;;;;;;;12.50;4.90;;;8.20;1.00;;;;;;6253047;28;20234;-55
2022/03/30 07:44:17;;;;;;;13.60;5.07;;;8.00;1.00;;;;;;6260950;28;20281;-53
2022/03/30 07:47:22;;;;;;;5.13;4.20;;;8.10;1.00;;;;;;6250630;28;20644;-54
2022/03/30 07:50:24;;;;;;;8.60;4.20;;;8.20;1.00;;;;;;6241762;28;20243;-53
2022/03/30 07:53:27;;;;;;;6.27;4.07;;;8.40;1.00;;;;;;6239178;28;20734;-55
2022/03/30 07:56:31;;;;;;;9.97;4.23;;;8.50;1.00;;;;;;6252451;28;20504;-54
2022/03/30 07:59:34;;;;;;;7.63;4.43;;;8.40;1.00;;;;;;6259285;28;20720;-55
2022/03/30 08:02:39;;;;;;;6.17;4.20;;;8.40;1.00;;;;;;6262921;28;20768;-55
2022/03/30 08:05:42;;;;;;;10.17;4.40;;;8.40;1.00;;;;;;6272585;28;20984;-53
2022/03/30 08:08:44;;;;;;;8.07;4.40;;;8.40;1.00;;;;;;6283943;28;20226;-53
2022/03/30 08:11:48;;;;;;;9.40;4.47;;;8.50;1.00;;;;;;6284645;28;20233;-54
2022/03/30 08:14:51;;;;;;;10.57;5.00;;;8.50;1.00;;;;;;6259495;28;20316;-53
2022/03/30 08:17:55;;;;;;;12.07;4.27;;;8.60;1.00;;;;;;6250652;28;20356;-55
2022/03/30 08:24:23;;;;;;;10.00;4.30;;;8.80;1.00;;;;;;6233674;28;20631;-54
2022/03/30 08:27:28;;;;;;;8.30;4.17;;;8.90;1.00;;;;;;6234081;28;20381;-54
2022/03/30 08:30:31;;;;;;;12.33;4.70;;;9.10;1.00;;;;;;6245603;28;20870;-54
2022/03/30 08:33:35;;;;;;;6.47;3.90;;;9.10;1.00;;;;;;6255425;28;20247;-55
2022/03/30 08:36:38;;;;;;;8.17;4.63;;;9.10;1.00;;;;;;6255458;28;20234;-55
2022/03/30 08:39:41;;;;;;;13.43;4.33;;;9.30;1.00;;;;;;6249355;28;20369;-54
2022/03/30 08:42:45;;;;;;;14.73;4.57;;;9.40;1.00;;;;;;6256513;28;20298;-54
2022/03/30 08:45:55;;;;;;;9.63;4.13;;;9.50;1.00;;;;;;6257330;28;20241;-55
2022/03/30 08:49:00;;;;;;;13.43;4.80;;;9.70;1.00;;;;;;6238530;28;20603;-56
2022/03/30 08:52:05;;;;;;;6.40;4.27;;;9.80;1.00;;;;;;6234424;28;20234;-54
2022/03/30 08:55:08;;;;;;;8.70;4.17;;;9.90;1.00;;;;;;6233620;28;20273;-55
2022/03/30 08:58:11;;;;;;;12.93;3.53;;;10.00;1.00;;;;;;6249821;28;20246;-54
2022/03/30 09:01:14;;;;;;;6.93;3.77;;;10.10;1.00;;;;;;6259063;28;20234;-53
2022/03/30 09:04:19;;;;;;;8.73;3.60;;;10.10;1.00;;;;;;6250726;28;20239;-55
2022/03/30 09:07:23;;;;;;;10.37;4.07;;;10.20;1.00;;;;;;6257436;28;20321;-54
2022/03/30 09:10:31;;;;;;;5.60;3.50;;;10.30;1.00;;;;;;6263194;28;20269;-55
2022/03/30 09:13:35;;;;;;;9.70;4.23;;;10.40;1.00;;;;;;6284287;28;20241;-50
2022/03/30 09:16:40;;;;;;;6.50;3.23;;;10.50;1.00;;;;;;6279717;28;20491;-54
2022/03/30 09:19:44;;;;;;;5.33;3.57;;;10.50;1.00;;;;;;6289173;28;20512;-57
2022/03/30 09:22:49;;;;;;;5.13;3.17;;;10.60;1.00;;;;;;6290264;28;20320;-57
2022/03/30 09:26:12;;;;;;;10.27;3.40;;;10.70;1.00;;;;;;6265978;28;20608;-54
2022/03/30 09:29:16;;;;;;;7.77;3.63;;;10.80;1.00;;;;;;6252085;28;20264;-53
2022/03/30 09:32:18;;;;;;;9.07;4.13;;;10.70;1.00;;;;;;6267056;28;20324;-53
2022/03/30 09:35:27;;;;;;;5.07;3.97;;;10.70;1.00;;;;;;6286793;28;20758;-54
2022/03/30 09:38:38;;;;;;;10.27;3.60;;;10.70;99.90;;;;;;6269774;28;20245;-55
2022/03/30 09:41:52;;;;;;;3.67;3.10;;;10.80;99.90;;;;;;6267320;28;20238;-54
2022/03/30 09:44:55;;;;;;;10.90;3.40;;;10.80;99.90;;;;;;6257536;28;20313;-56
2022/03/30 09:48:10;;;;;;;7.13;3.60;;;10.80;99.90;;;;;;6268008;28;20234;-54
2022/03/30 09:51:14;;;;;;;7.43;3.37;;;10.70;99.90;;;;;;6265259;28;20326;-54
2022/03/30 09:54:36;;;;;;;4.70;3.50;;;10.70;99.90;;;;;;6240330;28;20340;-54
2022/03/30 09:57:42;;;;;;;5.70;4.07;;;10.60;99.90;;;;;;6244915;28;20233;-53
2022/03/30 10:00:48;;;;;;;7.33;3.93;;;10.60;99.90;;;;;;6266383;28;20500;-55
2022/03/30 10:03:52;;;;;;;10.97;3.80;;;10.70;99.90;;;;;;6253381;28;20740;-53
2022/03/30 10:06:59;;;;;;;16.60;4.13;;;10.80;99.90;;;;;;6257269;28;20463;-54
2022/03/30 10:10:04;;;;;;;8.37;3.80;;;10.70;99.90;;;;;;6251445;28;20242;-54
2022/03/30 10:13:08;;;;;;;4.87;3.20;;;10.60;99.90;;;;;;6253978;28;20317;-53
2022/03/30 10:16:13;;;;;;;6.17;3.90;;;10.80;99.90;;;;;;6258238;28;20249;-54
2022/03/30 10:19:16;;;;;;;3.97;3.70;;;10.90;99.90;;;;;;6253376;28;20230;-54
2022/03/30 10:22:45;;;;;;;5.30;3.37;;;10.90;99.90;;;;;;6255393;28;20468;-54
2022/03/30 10:26:09;;;;;;;8.10;3.90;;;10.90;99.90;;;;;;6251352;28;20245;-54
2022/03/30 10:29:15;;;;;;;9.80;3.50;;;11.20;99.90;;;;;;6261258;28;20241;-53
2022/03/30 10:32:20;;;;;;;3.27;2.90;;;11.20;99.90;;;;;;6269940;28;20738;-53
2022/03/30 10:35:37;;;;;;;7.33;3.33;;;11.30;99.90;;;;;;6256772;28;20389;-55
2022/03/30 10:39:24;;;;;;;5.87;3.47;;;11.30;99.90;;;;;;6261438;28;20254;-55
2022/03/30 10:43:02;;;;;;;4.63;3.57;;;11.30;99.90;;;;;;6282123;28;20234;-54
2022/03/30 10:46:05;;;;;;;3.47;3.20;;;11.10;99.90;;;;;;6275385;28;20269;-54
2022/03/30 10:49:39;;;;;;;7.03;3.40;;;11.00;99.90;;;;;;6247930;28;20246;-54
2022/03/30 10:52:44;;;;;;;5.57;4.13;;;11.20;99.90;;;;;;6233463;28;20276;-54
2022/03/30 10:55:48;;;;;;;4.23;3.30;;;11.30;99.90;;;;;;6260755;28;20242;-52
2022/03/30 10:59:10;;;;;;;6.00;3.50;;;11.30;99.90;;;;;;6262111;28;20312;-55
2022/03/30 11:02:13;;;;;;;5.73;3.93;;;11.40;99.90;;;;;;6266392;28;20796;-54
2022/03/30 11:05:18;;;;;;;6.87;3.20;;;11.50;99.90;;;;;;6263169;28;20636;-54
2022/03/30 11:08:57;;;;;;;9.00;3.67;;;11.40;99.90;;;;;;6257454;28;20374;-53
2022/03/30 11:12:07;;;;;;;5.70;3.93;;;11.40;99.90;;;;;;6238400;28;20239;-55
2022/03/30 11:15:11;;;;;;;5.77;3.90;;;11.30;99.90;;;;;;6250730;28;20765;-55
2022/03/30 11:18:18;;;;;;;4.80;3.70;;;11.30;99.90;;;;;;6262918;28;20330;-54
2022/03/30 11:21:22;;;;;;;4.50;3.63;;;11.40;99.90;;;;;;6257670;28;20485;-55
2022/03/30 11:24:25;;;;;;;8.37;3.87;;;11.60;99.90;;;;;;6237289;28;20283;-54
2022/03/30 11:27:30;;;;;;;6.23;3.43;;;11.70;99.90;;;;;;6236836;28;20299;-54
2022/03/30 11:30:36;;;;;;;8.07;4.30;;;11.90;99.90;;;;;;6249059;28;20315;-53
2022/03/30 11:33:39;;;;;;;9.13;4.00;;;12.00;99.90;;;;;;6263395;28;20379;-54
2022/03/30 11:36:42;;;;;;;6.80;3.70;;;12.00;99.90;;;;;;6260400;28;20242;-54
2022/03/30 11:39:49;;;;;;;8.57;3.77;;;12.10;99.90;;;;;;6223856;28;20234;-52
2022/03/30 11:42:55;;;;;;;4.70;4.30;;;12.20;99.90;;;;;;6259419;28;20248;-54
2022/03/30 11:46:22;;;;;;;4.53;4.03;;;12.20;99.90;;;;;;6262312;28;20337;-54
2022/03/30 11:49:25;;;;;;;4.67;3.53;;;12.30;99.90;;;;;;6259662;28;20229;-54
2022/03/30 11:52:28;;;;;;;8.60;4.60;;;12.40;99.90;;;;;;6260939;28;20330;-54
2022/03/30 11:55:38;;;;;;;8.07;4.60;;;12.30;99.90;;;;;;6239961;28;20230;-55
2022/03/30 11:58:45;;;;;;;10.60;4.53;;;12.10;99.90;;;;;;6234136;28;20731;-55
2022/03/30 12:01:48;;;;;;;10.57;4.80;;;12.10;99.90;;;;;;6234990;28;20769;-54
2022/03/30 12:04:52;;;;;;;9.40;4.40;;;12.00;99.90;;;;;;6251827;28;20299;-54
2022/03/30 12:07:56;;;;;;;10.47;4.03;;;11.90;99.90;;;;;;6255346;28;20280;-54
2022/03/30 12:11:00;;;;;;;10.30;4.97;;;11.90;99.90;;;;;;6255312;28;20241;-53
2022/03/30 12:14:05;;;;;;;7.30;4.77;;;11.80;99.90;;;;;;6235806;28;20289;-54
2022/03/30 12:17:07;;;;;;;4.97;4.50;;;11.70;99.90;;;;;;6242297;28;20780;-53
2022/03/30 12:20:22;;;;;;;5.10;4.70;;;11.80;99.90;;;;;;6238238;28;20238;-54
2022/03/30 12:23:25;;;;;;;10.50;4.23;;;11.80;99.90;;;;;;6238071;28;20308;-54
2022/03/30 12:26:28;;;;;;;4.97;4.53;;;11.80;99.90;;;;;;6234653;28;20249;-53
2022/03/30 12:29:32;;;;;;;7.30;4.93;;;11.80;99.90;;;;;;6233137;28;20325;-54
2022/03/30 12:32:35;;;;;;;7.53;5.60;;;11.80;99.90;;;;;;6237852;28;20543;-54
2022/03/30 12:35:44;;;;;;;5.10;4.50;;;11.70;99.90;;;;;;6245568;28;20265;-56
2022/03/30 12:38:49;;;;;;;10.63;4.90;;;11.60;99.90;;;;;;6257944;28;20242;-54
2022/03/30 12:41:58;;;;;;;4.90;4.47;;;11.40;99.90;;;;;;6242233;28;20256;-54
2022/03/30 12:45:08;;;;;;;7.07;4.50;;;11.30;99.90;;;;;;6238511;28;20234;-53
2022/03/30 12:48:11;;;;;;;8.50;4.93;;;11.20;99.90;;;;;;6252335;28;20313;-54
2022/03/30 12:51:19;;;;;;;6.23;4.27;;;11.10;99.90;;;;;;6255804;28;20260;-54
2022/03/30 12:54:22;;;;;;;6.33;5.23;;;11.00;99.90;;;;;;6256173;28;20230;-54
2022/03/30 12:57:30;;;;;;;5.13;4.73;;;10.80;99.90;;;;;;6249752;28;20543;-55
2022/03/30 13:00:39;;;;;;;8.13;5.13;;;10.70;99.90;;;;;;6257631;28;20321;-55
2022/03/30 13:03:45;;;;;;;7.53;5.00;;;10.60;99.90;;;;;;6256892;28;20273;-54
2022/03/30 13:07:11;;;;;;;5.57;5.03;;;10.60;99.90;;;;;;6251981;28;20234;-54
2022/03/30 13:10:14;;;;;;;7.33;4.87;;;10.60;99.90;;;;;;6257136;28;20311;-54
2022/03/30 13:13:18;;;;;;;5.23;4.73;;;10.50;99.90;;;;;;6251439;28;20319;-54
2022/03/30 13:16:22;;;;;;;7.53;5.27;;;10.50;99.90;;;;;;6247315;28;20289;-55
2022/03/30 13:19:27;;;;;;;9.80;4.87;;;10.60;99.90;;;;;;6246843;28;20234;-55
2022/03/30 13:22:30;;;;;;;7.67;4.83;;;10.60;1.00;;;;;;6243200;28;20241;-54
2022/03/30 13:25:35;;;;;;;5.40;4.90;;;10.70;99.90;;;;;;6241075;28;20246;-55
2022/03/30 13:28:37;;;;;;;5.20;4.70;;;10.80;99.90;;;;;;6247008;28;20241;-54
2022/03/30 13:31:46;;;;;;;11.10;4.47;;;10.80;99.90;;;;;;6250397;28;20597;-53
2022/03/30 13:34:48;;;;;;;6.30;4.73;;;10.90;99.90;;;;;;6240088;28;20347;-54
2022/03/30 13:37:51;;;;;;;4.87;4.43;;;10.80;99.90;;;;;;6247321;28;20233;-53
2022/03/30 13:40:55;;;;;;;5.20;4.80;;;10.90;99.90;;;;;;6244222;28;20368;-54
2022/03/30 13:43:58;;;;;;;7.47;4.30;;;10.80;99.90;;;;;;6249568;28;20226;-54
2022/03/30 13:47:02;;;;;;;4.57;4.30;;;10.80;99.90;;;;;;6247949;28;20238;-54
2022/03/30 13:50:06;;;;;;;9.23;4.53;;;10.90;99.90;;;;;;6249158;28;20246;-54
2022/03/30 13:53:09;;;;;;;4.40;3.97;;;11.00;99.90;;;;;;6251499;28;20670;-54
2022/03/30 13:56:13;;;;;;;4.50;4.13;;;11.00;99.90;;;;;;6252478;28;20761;-54
2022/03/30 13:59:16;;;;;;;10.23;4.30;;;10.90;99.90;;;;;;6250162;28;20236;-55
2022/03/30 14:02:20;;;;;;;5.13;4.70;;;11.00;99.90;;;;;;6251319;28;20325;-54
2022/03/30 14:05:25;;;;;;;4.70;4.23;;;11.00;99.90;;;;;;6249610;28;20241;-53
2022/03/30 14:08:28;;;;;;;10.93;4.63;;;10.90;99.90;;;;;;6238589;28;20376;-53
2022/03/30 14:11:31;;;;;;;5.43;4.20;;;10.80;99.90;;;;;;6251761;28;20234;-54
2022/03/30 14:14:34;;;;;;;5.87;4.20;;;10.70;99.90;;;;;;6253000;28;20249;-55
2022/03/30 14:17:38;;;;;;;4.50;4.10;;;10.60;99.90;;;;;;6265625;28;20590;-54
2022/03/30 14:20:41;;;;;;;4.47;4.17;;;10.50;99.90;;;;;;6252684;28;20324;-53
2022/03/30 14:23:44;;;;;;;5.80;4.17;;;10.50;99.90;;;;;;6252139;28;20271;-54
2022/03/30 14:26:47;;;;;;;4.40;4.10;;;10.40;99.90;;;;;;6250623;28;20238;-55
2022/03/30 14:29:49;;;;;;;5.20;4.80;;;10.30;99.90;;;;;;6253975;28;20348;-55
2022/03/30 14:32:57;;;;;;;6.03;4.50;;;10.30;99.90;;;;;;6253641;28;20312;-56
2022/03/30 14:35:59;;;;;;;4.90;4.20;;;10.20;99.90;;;;;;6256106;28;20225;-55
2022/03/30 14:39:15;;;;;;;4.60;4.30;;;10.20;99.90;;;;;;6258205;28;20596;-60
2022/03/30 14:42:17;;;;;;;4.17;3.97;;;10.30;99.90;;;;;;6249246;28;20614;-54
2022/03/30 14:45:20;;;;;;;4.87;4.37;;;10.30;99.90;;;;;;6249036;28;20418;-54
2022/03/30 14:48:27;;;;;;;4.60;4.27;;;10.30;99.90;;;;;;6251559;28;20257;-54
2022/03/30 14:51:35;;;;;;;4.60;4.20;;;10.30;99.90;;;;;;6251377;28;20230;-53
2022/03/30 14:54:38;;;;;;;4.87;4.47;;;10.20;99.90;;;;;;6250362;28;20710;-54
2022/03/30 14:57:42;;;;;;;4.43;4.03;;;10.20;99.90;;;;;;6252227;28;20314;-54
2022/03/30 15:00:44;;;;;;;8.37;4.70;;;10.10;99.90;;;;;;6248109;28;20244;-55
2022/03/30 15:03:48;;;;;;;4.37;3.97;;;10.10;99.90;;;;;;6248580;28;20236;-54
2022/03/30 15:06:51;;;;;;;7.67;4.23;;;10.00;99.90;;;;;;6250187;28;20246;-54
2022/03/30 15:09:54;;;;;;;4.63;3.93;;;9.90;99.90;;;;;;6251826;28;20295;-57
2022/03/30 15:12:57;;;;;;;3.73;3.60;;;9.90;99.90;;;;;;6252925;28;20222;-55
2022/03/30 15:16:00;;;;;;;4.03;3.83;;;9.90;99.90;;;;;;6254350;28;20248;-53
2022/03/30 15:19:05;;;;;;;4.33;4.10;;;9.80;99.90;;;;;;6251038;28;20234;-54
2022/03/30 15:22:08;;;;;;;4.70;4.30;;;9.80;99.90;;;;;;6249559;28;20453;-55
2022/03/30 15:25:12;;;;;;;3.93;3.67;;;9.80;99.90;;;;;;6248736;28;20877;-54
2022/03/30 15:28:16;;;;;;;4.07;3.73;;;9.90;99.90;;;;;;6249704;28;20253;-54
2022/03/30 15:31:19;;;;;;;4.90;4.47;;;9.90;99.90;;;;;;6252080;28;20291;-55
2022/03/30 15:34:25;;;;;;;4.27;3.90;;;9.90;99.90;;;;;;6250947;28;20250;-53
2022/03/30 15:37:28;;;;;;;4.10;3.90;;;9.80;99.90;;;;;;6251381;28;20269;-55
2022/03/30 15:40:31;;;;;;;3.37;3.27;;;9.90;99.90;;;;;;6265676;28;20730;-54
2022/03/30 15:43:34;;;;;;;3.67;3.47;;;9.90;99.90;;;;;;6255991;28;20695;-54
2022/03/30 15:46:37;;;;;;;3.87;3.57;;;9.80;99.90;;;;;;6267938;28;20668;-54
2022/03/30 15:49:42;;;;;;;3.43;3.30;;;9.80;99.90;;;;;;6256464;28;20318;-53
2022/03/30 15:52:45;;;;;;;4.63;4.17;;;9.70;99.90;;;;;;6258739;28;20238;-54
2022/03/30 15:55:48;;;;;;;6.93;3.20;;;9.70;99.90;;;;;;6250590;28;20245;-54
2022/03/30 15:58:51;;;;;;;3.80;3.50;;;9.70;99.90;;;;;;6254294;28;20234;-55
2022/03/30 16:01:54;;;;;;;3.30;3.00;;;9.70;99.90;;;;;;6255350;28;20764;-54
2022/03/30 16:04:58;;;;;;;3.60;3.30;;;9.60;99.90;;;;;;6251669;28;20320;-55
2022/03/30 16:14:46;;;;;;;3.17;3.07;;;9.40;99.90;;;;;;6261466;28;20772;-55
2022/03/30 16:17:51;;;;;;;4.00;3.60;;;9.30;99.90;;;;;;6262353;28;20241;-55
2022/03/30 16:20:56;;;;;;;3.23;3.13;;;9.20;99.90;;;;;;6255744;28;20241;-55
2022/03/30 16:23:58;;;;;;;3.60;3.40;;;9.20;99.90;;;;;;6256321;28;20436;-54
2022/03/30 16:27:02;;;;;;;3.57;3.30;;;9.20;99.90;;;;;;6265844;28;20249;-54
2022/03/30 16:30:06;;;;;;;3.50;3.33;;;9.10;99.90;;;;;;6259171;28;20257;-54
2022/03/30 16:33:08;;;;;;;5.10;3.67;;;9.00;99.90;;;;;;6253611;28;20261;-54
2022/03/30 16:36:14;;;;;;;3.20;3.10;;;9.00;99.90;;;;;;6258110;28;20242;-54